Fitzroy Crossing Airport


Codes: YFTZ/FIZ
Name: Fitzroy Crossing Airport
City:
Country: Australia
Elevation: 368 ft.

Photos at Fitzroy Crossing Airport


   Photos courtesy of SpottingLog. You can add your own sightings and photos by signing up for a free trial today.



No photos found.

Weather at Fitzroy Crossing Airport


Time (UTC)DescriptionTempratureWindCloud coverageVisibilityPressureHumidity
16-Jun-2024 00:00Clear Sky25°C7 mph, NE0%10000m1017hPa29%
16-Jun-2024 03:00Clear Sky27°C11 mph, NE0%10000m1017hPa25%
16-Jun-2024 06:00Clear Sky31°C9 mph, E0%10000m1014hPa19%
16-Jun-2024 09:00Clear Sky30°C9 mph, E0%10000m1013hPa18%
16-Jun-2024 12:00Clear Sky26°C11 mph, E0%10000m1016hPa22%
16-Jun-2024 15:00Clear Sky24°C9 mph, NE0%10000m1016hPa25%
16-Jun-2024 18:00Clear Sky22°C9 mph, NE0%10000m1016hPa29%
16-Jun-2024 21:00Clear Sky20°C9 mph, NE0%10000m1017hPa32%
17-Jun-2024 00:00Clear Sky24°C13 mph, NE0%10000m1018hPa29%
17-Jun-2024 03:00Clear Sky31°C13 mph, NE0%10000m1016hPa18%
17-Jun-2024 06:00Clear Sky33°C11 mph, E0%10000m1013hPa14%
17-Jun-2024 09:00Clear Sky29°C9 mph, E0%10000m1013hPa18%
17-Jun-2024 12:00Clear Sky26°C9 mph, E0%10000m1016hPa21%
17-Jun-2024 15:00Clear Sky23°C9 mph, E0%10000m1017hPa24%
17-Jun-2024 18:00Clear Sky21°C9 mph, E1%10000m1016hPa28%
17-Jun-2024 21:00Few Clouds20°C9 mph, NE23%10000m1017hPa33%
18-Jun-2024 00:00Scattered Clouds23°C13 mph, E32%10000m1018hPa30%
18-Jun-2024 03:00Scattered Clouds30°C13 mph, NE38%10000m1017hPa19%
18-Jun-2024 06:00Broken Clouds32°C9 mph, E59%10000m1013hPa15%
18-Jun-2024 09:00Broken Clouds28°C7 mph, E56%10000m1013hPa19%
18-Jun-2024 12:00Scattered Clouds25°C9 mph, E40%10000m1015hPa23%
18-Jun-2024 15:00Few Clouds23°C7 mph, E13%10000m1015hPa27%
18-Jun-2024 18:00Clear Sky21°C9 mph, NE8%10000m1015hPa32%
18-Jun-2024 21:00Clear Sky20°C7 mph, NE5%10000m1015hPa36%
19-Jun-2024 00:00Clear Sky24°C9 mph, NE6%10000m1017hPa32%
19-Jun-2024 03:00Clear Sky30°C11 mph, E6%10000m1015hPa21%
19-Jun-2024 06:00Clear Sky32°C9 mph, E6%10000m1012hPa18%
19-Jun-2024 09:00Few Clouds28°C7 mph, SE22%10000m1012hPa23%
19-Jun-2024 12:00Few Clouds25°C9 mph, SE19%10000m1014hPa26%
19-Jun-2024 15:00Scattered Clouds23°C9 mph, SE41%10000m1015hPa31%
19-Jun-2024 18:00Few Clouds21°C7 mph, SE22%10000m1015hPa36%
19-Jun-2024 21:00Clear Sky20°C9 mph, SE4%10000m1016hPa39%
20-Jun-2024 00:00Scattered Clouds23°C13 mph, SE27%10000m1018hPa34%
20-Jun-2024 03:00Clear Sky29°C16 mph, E6%10000m1017hPa24%
20-Jun-2024 06:00Scattered Clouds31°C13 mph, SE35%10000m1013hPa21%
20-Jun-2024 09:00Overcast Clouds28°C9 mph, SE88%10000m1015hPa27%
20-Jun-2024 12:00Broken Clouds26°C16 mph, SE79%10000m1017hPa35%
20-Jun-2024 15:00Overcast Clouds23°C18 mph, SE99%10000m1017hPa41%
20-Jun-2024 18:00Overcast Clouds21°C16 mph, SE95%10000m1017hPa45%
20-Jun-2024 21:00Overcast Clouds19°C13 mph, SE92%10000m1017hPa52%